Terminal Aerodrome Forecast
Issued by NWS

Home | Current Version | Previous Version | Text Only | Print | Product List | Glossary On
Versions: 1 2 3 4 5 6 7 8 9 10 11 12 13 14 15 16 17 18 19 20 21 22 23 24 25 26 27
000
FTUS43 KLSX 070951 AAC
TAFSUS
TAF AMD
KSUS 070951Z 0710/0806 26008KT 5SM -RA SCT015 OVC030
     FM071100 30008KT P6SM -SHRA OVC010
     FM072000 01008KT P6SM VCSH OVC015
     FM080000 05007KT P6SM SCT025 BKN050=

USA.gov is the U.S. government's official web portal to all federal, state and local government web resources and services.